sensor_id;sensor_type;location;lat;lon;timestamp;P1;durP1;ratioP1;P2;durP2;ratioP2
74644;SDS011;63163;55.630;37.594;2023-10-31T00:00:54;5.200000;;;3.600000;;
74644;SDS011;63163;55.630;37.594;2023-10-31T00:01:54;4.800000;;;3.500000;;
74644;SDS011;63163;55.630;37.594;2023-10-31T00:02:55;6.000000;;;3.700000;;
74644;SDS011;63163;55.630;37.594;2023-10-31T00:03:56;5.500000;;;4.200000;;
74644;SDS011;63163;55.630;37.594;2023-10-31T00:04:56;6.200000;;;3.800000;;
74644;SDS011;63163;55.630;37.594;2023-10-31T00:05:57;5.800000;;;4.000000;;
74644;SDS011;63163;55.630;37.594;2023-10-31T00:06:57;6.700000;;;4.000000;;
74644;SDS011;63163;55.630;37.594;2023-10-31T00:07:58;6.000000;;;4.000000;;
74644;SDS011;63163;55.630;37.594;2023-10-31T00:08:58;4.800000;;;3.500000;;
74644;SDS011;63163;55.630;37.594;2023-10-31T00:09:59;6.400000;;;3.800000;;
74644;SDS011;63163;55.630;37.594;2023-10-31T00:10:59;5.300000;;;3.700000;;
74644;SDS011;63163;55.630;37.594;2023-10-31T00:12:00;6.500000;;;4.300000;;
74644;SDS011;63163;55.630;37.594;2023-10-31T00:13:00;4.900000;;;4.000000;;
74644;SDS011;63163;55.630;37.594;2023-10-31T00:14:01;5.800000;;;3.800000;;
74644;SDS011;63163;55.630;37.594;2023-10-31T00:15:01;5.600000;;;3.900000;;
74644;SDS011;63163;55.630;37.594;2023-10-31T00:16:02;6.100000;;;3.800000;;
74644;SDS011;63163;55.630;37.594;2023-10-31T00:17:03;5.400000;;;3.700000;;
74644;SDS011;63163;55.630;37.594;2023-10-31T00:18:04;6.100000;;;3.900000;;
74644;SDS011;63163;55.630;37.594;2023-10-31T00:19:04;5.500000;;;4.200000;;
74644;SDS011;63163;55.630;37.594;2023-10-31T00:20:05;5.300000;;;4.100000;;
74644;SDS011;63163;55.630;37.594;2023-10-31T00:21:06;4.800000;;;3.800000;;
74644;SDS011;63163;55.630;37.594;2023-10-31T00:22:06;6.800000;;;3.800000;;
74644;SDS011;63163;55.630;37.594;2023-10-31T00:23:07;6.000000;;;3.800000;;
74644;SDS011;63163;55.630;37.594;2023-10-31T00:24:07;4.400000;;;3.900000;;
74644;SDS011;63163;55.630;37.594;2023-10-31T00:25:08;5.400000;;;3.400000;;
74644;SDS011;63163;55.630;37.594;2023-10-31T00:26:09;7.000000;;;3.400000;;
74644;SDS011;63163;55.630;37.594;2023-10-31T00:27:10;5.000000;;;3.800000;;
74644;SDS011;63163;55.630;37.594;2023-10-31T00:28:10;6.500000;;;3.900000;;
74644;SDS011;63163;55.630;37.594;2023-10-31T00:29:11;4.500000;;;3.900000;;
74644;SDS011;63163;55.630;37.594;2023-10-31T00:30:11;6.600000;;;3.900000;;
74644;SDS011;63163;55.630;37.594;2023-10-31T00:31:12;6.000000;;;4.100000;;
74644;SDS011;63163;55.630;37.594;2023-10-31T00:32:14;4.700000;;;3.500000;;
74644;SDS011;63163;55.630;37.594;2023-10-31T00:33:15;4.500000;;;3.700000;;
74644;SDS011;63163;55.630;37.594;2023-10-31T00:34:15;5.700000;;;3.900000;;
74644;SDS011;63163;55.630;37.594;2023-10-31T00:35:16;8.000000;;;4.000000;;
74644;SDS011;63163;55.630;37.594;2023-10-31T00:36:16;6.200000;;;3.400000;;
74644;SDS011;63163;55.630;37.594;2023-10-31T00:37:17;5.800000;;;4.000000;;
74644;SDS011;63163;55.630;37.594;2023-10-31T00:38:17;4.600000;;;3.500000;;
74644;SDS011;63163;55.630;37.594;2023-10-31T00:39:18;5.400000;;;3.600000;;
74644;SDS011;63163;55.630;37.594;2023-10-31T00:40:18;4.400000;;;3.900000;;
74644;SDS011;63163;55.630;37.594;2023-10-31T00:41:19;6.600000;;;4.300000;;
74644;SDS011;63163;55.630;37.594;2023-10-31T00:42:19;4.800000;;;3.600000;;
74644;SDS011;63163;55.630;37.594;2023-10-31T00:43:20;4.800000;;;4.000000;;
74644;SDS011;63163;55.630;37.594;2023-10-31T00:44:20;4.900000;;;4.000000;;
74644;SDS011;63163;55.630;37.594;2023-10-31T00:45:21;7.000000;;;5.300000;;
74644;SDS011;63163;55.630;37.594;2023-10-31T00:46:22;6.000000;;;4.000000;;
74644;SDS011;63163;55.630;37.594;2023-10-31T00:47:22;5.500000;;;4.300000;;
74644;SDS011;63163;55.630;37.594;2023-10-31T00:48:23;4.400000;;;3.900000;;
74644;SDS011;63163;55.630;37.594;2023-10-31T00:49:23;4.700000;;;3.600000;;
74644;SDS011;63163;55.630;37.594;2023-10-31T00:50:24;5.800000;;;3.600000;;
74644;SDS011;63163;55.630;37.594;2023-10-31T00:51:24;6.700000;;;4.700000;;
74644;SDS011;63163;55.630;37.594;2023-10-31T00:52:25;5.600000;;;3.400000;;
74644;SDS011;63163;55.630;37.594;2023-10-31T00:53:25;5.600000;;;3.900000;;
74644;SDS011;63163;55.630;37.594;2023-10-31T00:54:26;6.300000;;;4.400000;;
74644;SDS011;63163;55.630;37.594;2023-10-31T00:55:26;5.100000;;;3.400000;;
74644;SDS011;63163;55.630;37.594;2023-10-31T00:56:27;5.400000;;;4.100000;;
74644;SDS011;63163;55.630;37.594;2023-10-31T00:57:28;4.900000;;;3.400000;;
74644;SDS011;63163;55.630;37.594;2023-10-31T00:58:28;6.500000;;;3.800000;;
74644;SDS011;63163;55.630;37.594;2023-10-31T00:59:29;5.300000;;;4.000000;;
74644;SDS011;63163;55.630;37.594;2023-10-31T01:00:29;5.600000;;;5.000000;;
74644;SDS011;63163;55.630;37.594;2023-10-31T01:01:30;4.400000;;;3.400000;;
74644;SDS011;63163;55.630;37.594;2023-10-31T01:02:30;5.600000;;;3.900000;;
74644;SDS011;63163;55.630;37.594;2023-10-31T01:03:31;5.600000;;;3.900000;;
74644;SDS011;63163;55.630;37.594;2023-10-31T01:04:31;6.600000;;;3.700000;;
74644;SDS011;63163;55.630;37.594;2023-10-31T01:05:32;5.000000;;;3.800000;;
74644;SDS011;63163;55.630;37.594;2023-10-31T01:06:32;6.800000;;;4.400000;;
74644;SDS011;63163;55.630;37.594;2023-10-31T01:07:33;5.300000;;;3.700000;;
74644;SDS011;63163;55.630;37.594;2023-10-31T01:08:34;6.000000;;;4.400000;;
74644;SDS011;63163;55.630;37.594;2023-10-31T01:09:35;5.900000;;;3.900000;;
74644;SDS011;63163;55.630;37.594;2023-10-31T01:10:35;5.700000;;;3.500000;;
74644;SDS011;63163;55.630;37.594;2023-10-31T01:11:36;7.800000;;;3.800000;;
74644;SDS011;63163;55.630;37.594;2023-10-31T01:12:36;5.100000;;;4.100000;;
74644;SDS011;63163;55.630;37.594;2023-10-31T01:13:37;5.700000;;;3.800000;;
74644;SDS011;63163;55.630;37.594;2023-10-31T01:14:37;5.600000;;;3.100000;;
74644;SDS011;63163;55.630;37.594;2023-10-31T01:15:38;4.800000;;;3.600000;;
74644;SDS011;63163;55.630;37.594;2023-10-31T01:16:39;4.900000;;;3.600000;;
74644;SDS011;63163;55.630;37.594;2023-10-31T01:17:39;6.600000;;;3.900000;;
74644;SDS011;63163;55.630;37.594;2023-10-31T01:18:40;5.200000;;;3.900000;;
74644;SDS011;63163;55.630;37.594;2023-10-31T01:19:40;5.600000;;;3.700000;;
74644;SDS011;63163;55.630;37.594;2023-10-31T01:20:41;5.400000;;;3.800000;;
74644;SDS011;63163;55.630;37.594;2023-10-31T01:21:42;6.000000;;;4.100000;;
74644;SDS011;63163;55.630;37.594;2023-10-31T01:22:42;5.600000;;;3.600000;;
74644;SDS011;63163;55.630;37.594;2023-10-31T01:23:43;4.900000;;;3.500000;;
74644;SDS011;63163;55.630;37.594;2023-10-31T01:24:43;6.400000;;;4.500000;;
74644;SDS011;63163;55.630;37.594;2023-10-31T01:25:44;5.000000;;;4.100000;;
74644;SDS011;63163;55.630;37.594;2023-10-31T01:26:44;4.500000;;;3.500000;;
74644;SDS011;63163;55.630;37.594;2023-10-31T01:27:45;4.500000;;;3.400000;;
74644;SDS011;63163;55.630;37.594;2023-10-31T01:28:45;4.800000;;;3.500000;;
74644;SDS011;63163;55.630;37.594;2023-10-31T01:29:46;4.900000;;;3.600000;;
74644;SDS011;63163;55.630;37.594;2023-10-31T01:30:46;4.000000;;;3.600000;;
74644;SDS011;63163;55.630;37.594;2023-10-31T01:31:47;5.200000;;;3.600000;;
74644;SDS011;63163;55.630;37.594;2023-10-31T01:32:47;4.600000;;;3.800000;;
74644;SDS011;63163;55.630;37.594;2023-10-31T01:33:48;6.300000;;;3.700000;;
74644;SDS011;63163;55.630;37.594;2023-10-31T01:34:48;5.100000;;;3.800000;;
74644;SDS011;63163;55.630;37.594;2023-10-31T01:35:49;4.200000;;;3.600000;;
74644;SDS011;63163;55.630;37.594;2023-10-31T01:36:49;4.900000;;;3.400000;;
74644;SDS011;63163;55.630;37.594;2023-10-31T01:37:50;5.200000;;;3.900000;;
74644;SDS011;63163;55.630;37.594;2023-10-31T01:38:51;5.500000;;;4.100000;;
74644;SDS011;63163;55.630;37.594;2023-10-31T01:39:51;3.600000;;;3.100000;;
74644;SDS011;63163;55.630;37.594;2023-10-31T01:40:52;4.500000;;;3.200000;;
74644;SDS011;63163;55.630;37.594;2023-10-31T01:41:53;4.800000;;;3.600000;;
74644;SDS011;63163;55.630;37.594;2023-10-31T01:42:55;5.700000;;;3.600000;;
74644;SDS011;63163;55.630;37.594;2023-10-31T01:43:55;4.600000;;;3.700000;;
74644;SDS011;63163;55.630;37.594;2023-10-31T01:44:56;4.800000;;;3.500000;;
74644;SDS011;63163;55.630;37.594;2023-10-31T01:45:57;4.900000;;;3.300000;;
74644;SDS011;63163;55.630;37.594;2023-10-31T01:46:57;4.600000;;;3.900000;;
74644;SDS011;63163;55.630;37.594;2023-10-31T01:47:57;4.100000;;;3.700000;;
74644;SDS011;63163;55.630;37.594;2023-10-31T01:48:58;4.400000;;;3.500000;;
74644;SDS011;63163;55.630;37.594;2023-10-31T01:49:59;5.700000;;;5.100000;;
74644;SDS011;63163;55.630;37.594;2023-10-31T01:51:00;4.200000;;;3.200000;;
74644;SDS011;63163;55.630;37.594;2023-10-31T01:52:02;4.600000;;;3.600000;;
74644;SDS011;63163;55.630;37.594;2023-10-31T01:53:03;4.900000;;;3.600000;;
74644;SDS011;63163;55.630;37.594;2023-10-31T01:54:03;4.400000;;;3.600000;;
74644;SDS011;63163;55.630;37.594;2023-10-31T01:55:04;4.300000;;;3.600000;;
74644;SDS011;63163;55.630;37.594;2023-10-31T01:56:05;5.300000;;;3.500000;;
74644;SDS011;63163;55.630;37.594;2023-10-31T01:57:06;4.700000;;;3.500000;;
74644;SDS011;63163;55.630;37.594;2023-10-31T01:58:06;3.900000;;;3.400000;;
74644;SDS011;63163;55.630;37.594;2023-10-31T01:59:07;4.900000;;;3.600000;;
74644;SDS011;63163;55.630;37.594;2023-10-31T02:00:09;4.900000;;;3.600000;;
74644;SDS011;63163;55.630;37.594;2023-10-31T02:01:10;4.500000;;;3.500000;;
74644;SDS011;63163;55.630;37.594;2023-10-31T02:02:10;4.800000;;;4.300000;;
74644;SDS011;63163;55.630;37.594;2023-10-31T02:03:11;4.500000;;;3.400000;;
74644;SDS011;63163;55.630;37.594;2023-10-31T02:04:11;5.100000;;;3.800000;;
74644;SDS011;63163;55.630;37.594;2023-10-31T02:05:12;5.300000;;;3.500000;;
74644;SDS011;63163;55.630;37.594;2023-10-31T02:06:12;5.600000;;;3.700000;;
74644;SDS011;63163;55.630;37.594;2023-10-31T02:07:13;4.700000;;;3.400000;;
74644;SDS011;63163;55.630;37.594;2023-10-31T02:08:13;5.200000;;;3.600000;;
74644;SDS011;63163;55.630;37.594;2023-10-31T02:09:14;5.200000;;;3.500000;;
74644;SDS011;63163;55.630;37.594;2023-10-31T02:10:14;5.200000;;;3.700000;;
74644;SDS011;63163;55.630;37.594;2023-10-31T02:11:15;5.100000;;;3.700000;;
74644;SDS011;63163;55.630;37.594;2023-10-31T02:12:30;5.000000;;;3.900000;;
74644;SDS011;63163;55.630;37.594;2023-10-31T02:13:31;4.200000;;;3.600000;;
74644;SDS011;63163;55.630;37.594;2023-10-31T02:14:31;6.100000;;;3.700000;;
74644;SDS011;63163;55.630;37.594;2023-10-31T02:15:32;6.500000;;;3.800000;;
74644;SDS011;63163;55.630;37.594;2023-10-31T02:16:32;7.000000;;;3.900000;;
74644;SDS011;63163;55.630;37.594;2023-10-31T02:17:33;5.500000;;;3.700000;;
74644;SDS011;63163;55.630;37.594;2023-10-31T02:18:34;5.200000;;;3.600000;;
74644;SDS011;63163;55.630;37.594;2023-10-31T02:19:34;5.400000;;;3.900000;;
74644;SDS011;63163;55.630;37.594;2023-10-31T02:20:35;4.500000;;;3.400000;;
74644;SDS011;63163;55.630;37.594;2023-10-31T02:21:38;5.800000;;;3.800000;;
74644;SDS011;63163;55.630;37.594;2023-10-31T02:22:39;5.600000;;;3.700000;;
74644;SDS011;63163;55.630;37.594;2023-10-31T02:23:39;4.200000;;;3.300000;;
74644;SDS011;63163;55.630;37.594;2023-10-31T02:24:40;4.000000;;;3.500000;;
74644;SDS011;63163;55.630;37.594;2023-10-31T02:25:40;4.400000;;;3.500000;;
74644;SDS011;63163;55.630;37.594;2023-10-31T02:26:41;5.300000;;;3.700000;;
74644;SDS011;63163;55.630;37.594;2023-10-31T02:27:41;7.100000;;;4.300000;;
74644;SDS011;63163;55.630;37.594;2023-10-31T02:28:42;5.600000;;;3.700000;;
74644;SDS011;63163;55.630;37.594;2023-10-31T02:29:43;6.400000;;;3.900000;;
74644;SDS011;63163;55.630;37.594;2023-10-31T02:30:43;5.200000;;;3.600000;;
74644;SDS011;63163;55.630;37.594;2023-10-31T02:31:44;5.300000;;;3.700000;;
74644;SDS011;63163;55.630;37.594;2023-10-31T02:32:44;4.700000;;;3.700000;;
74644;SDS011;63163;55.630;37.594;2023-10-31T02:33:45;6.200000;;;3.700000;;
74644;SDS011;63163;55.630;37.594;2023-10-31T02:34:45;5.200000;;;3.700000;;
74644;SDS011;63163;55.630;37.594;2023-10-31T02:35:46;6.100000;;;3.900000;;
74644;SDS011;63163;55.630;37.594;2023-10-31T02:36:46;4.900000;;;4.000000;;
74644;SDS011;63163;55.630;37.594;2023-10-31T02:37:47;5.200000;;;4.100000;;
74644;SDS011;63163;55.630;37.594;2023-10-31T02:38:47;5.800000;;;3.600000;;
74644;SDS011;63163;55.630;37.594;2023-10-31T02:39:48;5.200000;;;3.900000;;
74644;SDS011;63163;55.630;37.594;2023-10-31T02:40:48;5.500000;;;4.100000;;
74644;SDS011;63163;55.630;37.594;2023-10-31T02:41:49;5.100000;;;4.000000;;
74644;SDS011;63163;55.630;37.594;2023-10-31T02:42:49;4.500000;;;3.800000;;
74644;SDS011;63163;55.630;37.594;2023-10-31T02:43:50;5.200000;;;3.700000;;
74644;SDS011;63163;55.630;37.594;2023-10-31T02:44:50;6.400000;;;4.100000;;
74644;SDS011;63163;55.630;37.594;2023-10-31T02:45:51;5.000000;;;4.100000;;
74644;SDS011;63163;55.630;37.594;2023-10-31T02:46:52;5.000000;;;4.100000;;
74644;SDS011;63163;55.630;37.594;2023-10-31T02:47:52;5.400000;;;3.800000;;
74644;SDS011;63163;55.630;37.594;2023-10-31T02:48:53;5.800000;;;4.300000;;
74644;SDS011;63163;55.630;37.594;2023-10-31T02:49:53;5.900000;;;4.700000;;
74644;SDS011;63163;55.630;37.594;2023-10-31T02:50:54;5.400000;;;4.100000;;
74644;SDS011;63163;55.630;37.594;2023-10-31T02:51:54;6.000000;;;3.800000;;
74644;SDS011;63163;55.630;37.594;2023-10-31T02:52:55;5.500000;;;3.900000;;
74644;SDS011;63163;55.630;37.594;2023-10-31T02:53:55;5.100000;;;4.200000;;
74644;SDS011;63163;55.630;37.594;2023-10-31T02:54:56;5.800000;;;3.800000;;
74644;SDS011;63163;55.630;37.594;2023-10-31T02:55:56;8.000000;;;4.300000;;
74644;SDS011;63163;55.630;37.594;2023-10-31T02:56:57;5.700000;;;4.000000;;
74644;SDS011;63163;55.630;37.594;2023-10-31T02:57:57;4.500000;;;3.500000;;
74644;SDS011;63163;55.630;37.594;2023-10-31T02:58:58;4.500000;;;4.100000;;
74644;SDS011;63163;55.630;37.594;2023-10-31T02:59:58;6.600000;;;4.400000;;
74644;SDS011;63163;55.630;37.594;2023-10-31T03:00:59;4.900000;;;4.000000;;
74644;SDS011;63163;55.630;37.594;2023-10-31T03:01:59;5.300000;;;4.500000;;
74644;SDS011;63163;55.630;37.594;2023-10-31T03:03:00;6.000000;;;4.200000;;
74644;SDS011;63163;55.630;37.594;2023-10-31T03:04:00;6.200000;;;3.800000;;
74644;SDS011;63163;55.630;37.594;2023-10-31T03:05:01;6.000000;;;4.300000;;
74644;SDS011;63163;55.630;37.594;2023-10-31T03:06:02;4.800000;;;4.100000;;
74644;SDS011;63163;55.630;37.594;2023-10-31T03:07:03;6.500000;;;4.200000;;
74644;SDS011;63163;55.630;37.594;2023-10-31T03:08:03;6.500000;;;4.700000;;
74644;SDS011;63163;55.630;37.594;2023-10-31T03:09:04;7.100000;;;4.500000;;
74644;SDS011;63163;55.630;37.594;2023-10-31T03:10:05;6.300000;;;4.600000;;
74644;SDS011;63163;55.630;37.594;2023-10-31T03:11:06;6.000000;;;4.500000;;
74644;SDS011;63163;55.630;37.594;2023-10-31T03:12:06;6.600000;;;4.300000;;
74644;SDS011;63163;55.630;37.594;2023-10-31T03:13:07;6.800000;;;4.600000;;
74644;SDS011;63163;55.630;37.594;2023-10-31T03:14:07;5.800000;;;5.000000;;
74644;SDS011;63163;55.630;37.594;2023-10-31T03:15:08;5.900000;;;4.400000;;
74644;SDS011;63163;55.630;37.594;2023-10-31T03:16:09;6.700000;;;4.500000;;
74644;SDS011;63163;55.630;37.594;2023-10-31T03:17:09;7.600000;;;4.300000;;
74644;SDS011;63163;55.630;37.594;2023-10-31T03:18:10;6.600000;;;4.800000;;
74644;SDS011;63163;55.630;37.594;2023-10-31T03:19:10;7.100000;;;4.400000;;
74644;SDS011;63163;55.630;37.594;2023-10-31T03:20:11;6.100000;;;4.200000;;
74644;SDS011;63163;55.630;37.594;2023-10-31T03:21:11;6.000000;;;3.900000;;
74644;SDS011;63163;55.630;37.594;2023-10-31T03:22:12;6.600000;;;4.400000;;
74644;SDS011;63163;55.630;37.594;2023-10-31T03:23:13;6.700000;;;4.000000;;
74644;SDS011;63163;55.630;37.594;2023-10-31T03:24:14;7.200000;;;4.400000;;
74644;SDS011;63163;55.630;37.594;2023-10-31T03:25:15;6.000000;;;4.200000;;
74644;SDS011;63163;55.630;37.594;2023-10-31T03:26:15;6.600000;;;4.300000;;
74644;SDS011;63163;55.630;37.594;2023-10-31T03:27:16;6.300000;;;4.500000;;
74644;SDS011;63163;55.630;37.594;2023-10-31T03:28:17;6.300000;;;4.200000;;
74644;SDS011;63163;55.630;37.594;2023-10-31T03:29:18;6.200000;;;4.300000;;
74644;SDS011;63163;55.630;37.594;2023-10-31T03:30:19;9.000000;;;5.000000;;
74644;SDS011;63163;55.630;37.594;2023-10-31T03:31:20;5.900000;;;4.300000;;
74644;SDS011;63163;55.630;37.594;2023-10-31T03:32:20;6.400000;;;5.700000;;
74644;SDS011;63163;55.630;37.594;2023-10-31T03:33:22;5.400000;;;4.500000;;
74644;SDS011;63163;55.630;37.594;2023-10-31T03:34:22;7.000000;;;5.500000;;
74644;SDS011;63163;55.630;37.594;2023-10-31T03:35:23;7.600000;;;4.800000;;
74644;SDS011;63163;55.630;37.594;2023-10-31T03:36:24;6.600000;;;4.600000;;
74644;SDS011;63163;55.630;37.594;2023-10-31T03:37:24;6.500000;;;4.400000;;
74644;SDS011;63163;55.630;37.594;2023-10-31T03:38:24;6.300000;;;4.800000;;
74644;SDS011;63163;55.630;37.594;2023-10-31T03:39:25;6.300000;;;4.900000;;
74644;SDS011;63163;55.630;37.594;2023-10-31T03:40:25;6.800000;;;4.700000;;
74644;SDS011;63163;55.630;37.594;2023-10-31T03:41:26;6.900000;;;4.700000;;
74644;SDS011;63163;55.630;37.594;2023-10-31T03:42:26;6.500000;;;4.500000;;
74644;SDS011;63163;55.630;37.594;2023-10-31T03:43:27;6.700000;;;4.400000;;
74644;SDS011;63163;55.630;37.594;2023-10-31T03:44:28;6.100000;;;4.300000;;
74644;SDS011;63163;55.630;37.594;2023-10-31T03:45:28;7.100000;;;4.300000;;
74644;SDS011;63163;55.630;37.594;2023-10-31T03:46:29;7.700000;;;4.800000;;
74644;SDS011;63163;55.630;37.594;2023-10-31T03:47:30;6.000000;;;4.500000;;
74644;SDS011;63163;55.630;37.594;2023-10-31T03:48:30;7.200000;;;5.300000;;
74644;SDS011;63163;55.630;37.594;2023-10-31T03:49:30;6.100000;;;4.500000;;
74644;SDS011;63163;55.630;37.594;2023-10-31T03:50:31;6.000000;;;4.500000;;
74644;SDS011;63163;55.630;37.594;2023-10-31T03:51:32;6.600000;;;4.400000;;
74644;SDS011;63163;55.630;37.594;2023-10-31T03:52:32;6.600000;;;4.500000;;
74644;SDS011;63163;55.630;37.594;2023-10-31T03:53:33;7.000000;;;4.600000;;
74644;SDS011;63163;55.630;37.594;2023-10-31T03:54:33;7.100000;;;5.300000;;
74644;SDS011;63163;55.630;37.594;2023-10-31T03:55:34;7.000000;;;4.800000;;
74644;SDS011;63163;55.630;37.594;2023-10-31T03:56:38;6.100000;;;4.700000;;
74644;SDS011;63163;55.630;37.594;2023-10-31T03:57:38;6.000000;;;4.900000;;
74644;SDS011;63163;55.630;37.594;2023-10-31T03:58:39;6.700000;;;4.900000;;
74644;SDS011;63163;55.630;37.594;2023-10-31T03:59:40;8.300000;;;5.100000;;
74644;SDS011;63163;55.630;37.594;2023-10-31T04:00:40;6.800000;;;5.000000;;
74644;SDS011;63163;55.630;37.594;2023-10-31T04:01:42;7.100000;;;5.200000;;
74644;SDS011;63163;55.630;37.594;2023-10-31T04:02:42;6.900000;;;4.800000;;
74644;SDS011;63163;55.630;37.594;2023-10-31T04:03:43;7.300000;;;4.900000;;
74644;SDS011;63163;55.630;37.594;2023-10-31T04:04:44;8.500000;;;4.900000;;
74644;SDS011;63163;55.630;37.594;2023-10-31T04:05:44;6.400000;;;4.600000;;
74644;SDS011;63163;55.630;37.594;2023-10-31T04:06:45;6.600000;;;5.100000;;
74644;SDS011;63163;55.630;37.594;2023-10-31T04:07:46;10.000000;;;5.500000;;
74644;SDS011;63163;55.630;37.594;2023-10-31T04:08:46;6.800000;;;5.700000;;
74644;SDS011;63163;55.630;37.594;2023-10-31T04:09:47;6.600000;;;4.400000;;
74644;SDS011;63163;55.630;37.594;2023-10-31T04:10:47;5.500000;;;4.600000;;
74644;SDS011;63163;55.630;37.594;2023-10-31T04:11:48;7.000000;;;4.900000;;
74644;SDS011;63163;55.630;37.594;2023-10-31T04:12:48;6.700000;;;5.000000;;
74644;SDS011;63163;55.630;37.594;2023-10-31T04:13:49;8.200000;;;5.200000;;
74644;SDS011;63163;55.630;37.594;2023-10-31T04:14:50;7.900000;;;6.400000;;
74644;SDS011;63163;55.630;37.594;2023-10-31T04:15:50;7.400000;;;5.300000;;
74644;SDS011;63163;55.630;37.594;2023-10-31T04:16:51;7.700000;;;5.400000;;
74644;SDS011;63163;55.630;37.594;2023-10-31T04:17:51;7.700000;;;5.300000;;
74644;SDS011;63163;55.630;37.594;2023-10-31T04:18:52;8.500000;;;4.900000;;
74644;SDS011;63163;55.630;37.594;2023-10-31T04:19:52;6.200000;;;4.900000;;
74644;SDS011;63163;55.630;37.594;2023-10-31T04:20:53;6.200000;;;5.200000;;
74644;SDS011;63163;55.630;37.594;2023-10-31T04:21:53;6.600000;;;5.700000;;
74644;SDS011;63163;55.630;37.594;2023-10-31T04:22:54;8.400000;;;5.100000;;
74644;SDS011;63163;55.630;37.594;2023-10-31T04:23:54;5.600000;;;4.900000;;
74644;SDS011;63163;55.630;37.594;2023-10-31T04:24:55;6.500000;;;4.800000;;
74644;SDS011;63163;55.630;37.594;2023-10-31T04:25:56;6.900000;;;4.700000;;
74644;SDS011;63163;55.630;37.594;2023-10-31T04:26:56;7.700000;;;5.200000;;
74644;SDS011;63163;55.630;37.594;2023-10-31T04:27:57;7.400000;;;4.700000;;
74644;SDS011;63163;55.630;37.594;2023-10-31T04:28:58;8.200000;;;5.100000;;
74644;SDS011;63163;55.630;37.594;2023-10-31T04:29:58;8.300000;;;4.800000;;
74644;SDS011;63163;55.630;37.594;2023-10-31T04:30:59;7.300000;;;4.900000;;
74644;SDS011;63163;55.630;37.594;2023-10-31T04:31:59;6.000000;;;4.300000;;
74644;SDS011;63163;55.630;37.594;2023-10-31T04:33:00;5.000000;;;4.400000;;
74644;SDS011;63163;55.630;37.594;2023-10-31T04:34:00;6.700000;;;4.800000;;
74644;SDS011;63163;55.630;37.594;2023-10-31T04:35:01;7.900000;;;5.700000;;
74644;SDS011;63163;55.630;37.594;2023-10-31T04:36:02;6.500000;;;4.600000;;
74644;SDS011;63163;55.630;37.594;2023-10-31T04:37:02;6.100000;;;4.800000;;
74644;SDS011;63163;55.630;37.594;2023-10-31T04:38:03;6.800000;;;4.300000;;
74644;SDS011;63163;55.630;37.594;2023-10-31T04:39:03;6.600000;;;5.200000;;
74644;SDS011;63163;55.630;37.594;2023-10-31T04:40:04;6.500000;;;5.100000;;
74644;SDS011;63163;55.630;37.594;2023-10-31T04:41:05;7.300000;;;5.000000;;
74644;SDS011;63163;55.630;37.594;2023-10-31T04:42:07;6.300000;;;4.900000;;
74644;SDS011;63163;55.630;37.594;2023-10-31T04:43:08;7.200000;;;4.600000;;
74644;SDS011;63163;55.630;37.594;2023-10-31T04:44:09;6.700000;;;5.500000;;
74644;SDS011;63163;55.630;37.594;2023-10-31T04:45:09;7.100000;;;4.700000;;
74644;SDS011;63163;55.630;37.594;2023-10-31T04:46:10;5.400000;;;4.600000;;
74644;SDS011;63163;55.630;37.594;2023-10-31T04:47:10;7.600000;;;5.400000;;
74644;SDS011;63163;55.630;37.594;2023-10-31T04:48:11;6.800000;;;5.300000;;
74644;SDS011;63163;55.630;37.594;2023-10-31T04:49:12;5.600000;;;4.200000;;
74644;SDS011;63163;55.630;37.594;2023-10-31T04:50:12;5.800000;;;4.600000;;
74644;SDS011;63163;55.630;37.594;2023-10-31T04:51:13;6.100000;;;4.900000;;
74644;SDS011;63163;55.630;37.594;2023-10-31T04:52:13;9.100000;;;5.200000;;
74644;SDS011;63163;55.630;37.594;2023-10-31T04:53:14;8.500000;;;5.300000;;
74644;SDS011;63163;55.630;37.594;2023-10-31T04:54:14;6.400000;;;4.800000;;
74644;SDS011;63163;55.630;37.594;2023-10-31T04:55:15;5.600000;;;4.400000;;
74644;SDS011;63163;55.630;37.594;2023-10-31T04:56:15;6.400000;;;4.800000;;
74644;SDS011;63163;55.630;37.594;2023-10-31T04:57:16;6.600000;;;4.300000;;
74644;SDS011;63163;55.630;37.594;2023-10-31T04:58:16;6.000000;;;4.800000;;
74644;SDS011;63163;55.630;37.594;2023-10-31T04:59:17;5.800000;;;4.600000;;
74644;SDS011;63163;55.630;37.594;2023-10-31T05:00:18;5.400000;;;4.400000;;
74644;SDS011;63163;55.630;37.594;2023-10-31T05:01:18;7.300000;;;5.000000;;
74644;SDS011;63163;55.630;37.594;2023-10-31T05:02:20;5.100000;;;4.600000;;
74644;SDS011;63163;55.630;37.594;2023-10-31T05:03:21;8.300000;;;4.600000;;
74644;SDS011;63163;55.630;37.594;2023-10-31T05:04:21;7.800000;;;4.600000;;
74644;SDS011;63163;55.630;37.594;2023-10-31T05:05:22;5.700000;;;4.400000;;
74644;SDS011;63163;55.630;37.594;2023-10-31T05:06:22;8.000000;;;4.600000;;
74644;SDS011;63163;55.630;37.594;2023-10-31T05:07:23;7.800000;;;4.700000;;
74644;SDS011;63163;55.630;37.594;2023-10-31T05:08:24;5.200000;;;4.500000;;
74644;SDS011;63163;55.630;37.594;2023-10-31T05:09:24;5.700000;;;4.500000;;
74644;SDS011;63163;55.630;37.594;2023-10-31T05:10:25;6.600000;;;4.900000;;
74644;SDS011;63163;55.630;37.594;2023-10-31T05:11:25;6.400000;;;4.800000;;
74644;SDS011;63163;55.630;37.594;2023-10-31T05:12:26;5.900000;;;4.700000;;
74644;SDS011;63163;55.630;37.594;2023-10-31T05:13:26;6.900000;;;4.800000;;
74644;SDS011;63163;55.630;37.594;2023-10-31T05:14:27;6.000000;;;5.400000;;
74644;SDS011;63163;55.630;37.594;2023-10-31T05:15:27;4.900000;;;4.400000;;
74644;SDS011;63163;55.630;37.594;2023-10-31T05:16:28;7.300000;;;5.000000;;
74644;SDS011;63163;55.630;37.594;2023-10-31T05:17:28;7.800000;;;4.800000;;
74644;SDS011;63163;55.630;37.594;2023-10-31T05:18:29;7.800000;;;5.000000;;
74644;SDS011;63163;55.630;37.594;2023-10-31T05:19:29;6.800000;;;4.700000;;
74644;SDS011;63163;55.630;37.594;2023-10-31T05:20:30;6.000000;;;4.900000;;
74644;SDS011;63163;55.630;37.594;2023-10-31T05:21:30;6.000000;;;4.900000;;